Flight Track Log - Related Links

Times and Time Zones

All times are in EDT time to prevent confusion due to time zone crossing. See the N123AD flight status page for this flight to view local times or setup timezone preferences in your user account.

Time Position Orientation Groundspeed Altitude Reporting Facility
EDT Latitude Longitude Course Direction KTS MPH feet Rate Location/Type
Sun 02:31:51 PM 35.3931 -79.3094 14° North 195 224 9,300  Level Washington Center
Sun 02:32:52 PM 35.4394 -79.2911 18° North 195 224 10,000 1,261 Climbing Washington Center
Sun 02:33:50 PM 35.4831 -79.2294 49° Northeast 220 253 11,800 2,218 Climbing Washington Center
Sun 02:34:51 PM 35.5267 -79.1703 48° Northeast 220 253 14,400 2,231 Climbing Washington Center
Sun 02:35:00 PM 35.3816 -79.5055 19° North  Level FlightAware Approximate
Sun 02:35:51 PM 35.5572 -79.1308 46° Northeast 188 216 16,300  Level Washington Center
Sun 02:36:00 PM 35.4504 -79.4782 14° North  Level FlightAware Approximate
Sun 02:36:52 PM 35.5897 -79.0836 50° Northeast 168 193 18,000  Level Washington Center
Sun 02:37:00 PM 35.5206 -79.4572 14° North  Level FlightAware Approximate
Sun 02:37:52 PM 35.6203 -79.0414 48° Northeast 168 193 19,100  Level Washington Center
Sun 02:38:50 PM 35.6592 -78.9972 43° Northeast 168 193 20,100 1,017 Climbing Washington Center
Sun 02:39:50 PM 35.7061 -78.9531 37° Northeast 181 208 21,100 992 Climbing Washington Center
Sun 02:40:51 PM 35.7556 -78.9067 37° Northeast 203 234 22,100 942 Climbing Washington Center
Sun 02:41:51 PM 35.8069 -78.8575 38° Northeast 222 255 23,000 645 Climbing Washington Center
Sun 02:42:52 PM 35.8669 -78.8011 37° Northeast 241 277 23,400 793 Climbing Washington Center
Sun 02:43:52 PM 35.9161 -78.7569 36° Northeast 256 295 24,600 1,373 Climbing Washington Center
Sun 02:44:50 PM 35.9739 -78.7000 39° Northeast 251 289 26,100 1,513 Climbing Washington Center
Sun 02:45:51 PM 36.0208 -78.6531 39° Northeast 240 276 27,600 942 Climbing Washington Center
Sun 02:46:51 PM 36.0744 -78.6039 37° Northeast 231 266 28,000 200 Climbing Washington Center
Sun 02:47:51 PM 36.1300 -78.5494 38° Northeast 236 272 28,000 198 Level Washington Center
Sun 02:48:52 PM 36.1900 -78.4900 39° Northeast 257 296 28,400 706 Climbing Washington Center
Sun 02:49:50 PM 36.2517 -78.4356 35° Northeast 262 302 29,400 958 Climbing Washington Center
Sun 02:50:51 PM 36.3050 -78.3833 38° Northeast 256 295 30,300 942 Climbing Washington Center
Sun 02:51:51 PM 36.3583 -78.3311 38° Northeast 250 288 31,300 992 Climbing Washington Center
Sun 02:52:52 PM 36.4097 -78.2811 38° Northeast 245 282 32,300 843 Climbing Washington Center
Sun 02:53:52 PM 36.4608 -78.2314 38° Northeast 240 276 33,000 356 Climbing Washington Center
Sun 02:54:50 PM 36.5142 -78.1789 38° Northeast 235 270 33,000  Level Washington Center
Sun 02:55:50 PM 36.5681 -78.1006 49° Northeast 251 289 33,000 446 Level Washington Center
Sun 02:56:51 PM 36.6133 -78.0217 54° Northeast 262 302 33,900 942 Climbing Washington Center
Sun 02:57:51 PM 36.6567 -77.9506 53° Northeast 267 307 34,900 893 Climbing Washington Center
Sun 02:58:52 PM 36.6975 -77.8844 52° Northeast 249 287 35,700 655 Climbing Washington Center
Sun 02:59:50 PM 36.7425 -77.8261 46° Northeast 237 273 36,200 508 Climbing Washington Center
Sun 03:00:50 PM 36.7956 -77.7783 36° Northeast 237 273 36,700 397 Climbing Washington Center
Sun 03:01:51 PM 36.8506 -77.7306 35° Northeast 232 267 37,000 148 Climbing Washington Center
Sun 03:02:52 PM 36.9014 -77.6853 35° Northeast 232 267 37,000  Level Washington Center
Sun 03:03:50 PM 36.9564 -77.6347 36° Northeast 232 267 37,000  Level Washington Center
Sun 03:04:51 PM 37.0094 -77.5842 37° Northeast 232 267 37,000  Level Washington Center
Sun 03:05:51 PM 37.0644 -77.5361 35° Northeast 232 267 37,000  Level Washington Center
Sun 03:06:53 PM 37.1217 -77.4856 35° Northeast 238 274 37,000  Level Washington Center
Sun 03:07:50 PM 37.1789 -77.4322 37° Northeast 243 280 37,000  Level Washington Center
Sun 03:08:51 PM 37.2339 -77.3839 35° Northeast 243 280 37,000  Level Washington Center
Sun 03:09:52 PM 37.2886 -77.3356 35° Northeast 243 280 37,000  Level Washington Center
Sun 03:10:50 PM 37.3458 -77.2847 35° Northeast 243 280 37,000  Level Washington Center
Sun 03:11:51 PM 37.4028 -77.2336 35° Northeast 243 280 37,000  Level Washington Center
Sun 03:12:52 PM 37.4619 -77.1825 34° Northeast 243 280 37,000  Level Washington Center
Sun 03:13:50 PM 37.5189 -77.1289 37° Northeast 253 291 37,000  Level Washington Center
Sun 03:14:50 PM 37.5739 -77.0750 38° Northeast 253 291 37,000  Level Washington Center
Sun 03:15:50 PM 37.6267 -77.0208 39° Northeast 253 291 37,000  Level Washington Center
Sun 03:16:51 PM 37.6814 -76.9694 37° Northeast 253 291 37,000  Level Washington Center
Sun 03:17:52 PM 37.7342 -76.9153 39° Northeast 253 291 37,000  Level Washington Center
Sun 03:18:52 PM 37.7786 -76.8503 49° Northeast 243 280 37,000  Level Washington Center
Sun 03:19:50 PM 37.8233 -76.7828 50° Northeast 243 280 37,000  Level Washington Center
Sun 03:20:51 PM 37.8675 -76.7175 49° Northeast 243 280 37,000  Level Washington Center
Sun 03:21:53 PM 37.9100 -76.6525 50° Northeast 238 274 37,000  Level Washington Center
Sun 03:22:50 PM 37.9522 -76.5844 52° Northeast 238 274 37,000  Level Washington Center
Sun 03:23:50 PM 37.9967 -76.5167 50° Northeast 238 274 37,000  Level Washington Center
Sun 03:24:51 PM 38.0408 -76.4514 49° Northeast 238 274 37,000  Level Washington Center
Sun 03:25:52 PM 38.0831 -76.3831 52° Northeast 243 280 37,000  Level Washington Center
Sun 03:26:52 PM 38.1292 -76.3150 49° Northeast 243 280 37,000  Level Washington Center
Sun 03:27:50 PM 38.1692 -76.2547 50° Northeast 248 285 37,000  Level Washington Center
Sun 03:28:50 PM 38.2114 -76.1864 52° Northeast 253 291 37,000  Level Washington Center
Sun 03:29:52 PM 38.2556 -76.1181 51° Northeast 253 291 37,000  Level Washington Center
Sun 03:30:52 PM 38.2994 -76.0519 50° Northeast 253 291 37,000  Level Washington Center
Sun 03:31:50 PM 38.3414 -75.9836 52° Northeast 248 285 37,000  Level Washington Center
Sun 03:32:50 PM 38.3853 -75.9175 50° Northeast 248 285 37,000  Level Washington Center
Sun 03:33:51 PM 38.4294 -75.8514 50° Northeast 248 285 37,000  Level Washington Center
Sun 03:34:51 PM 38.4733 -75.7853 50° Northeast 248 285 37,000  Level Washington Center
Sun 03:35:53 PM 38.5192 -75.7192 48° Northeast 248 285 37,000  Level Washington Center
Sun 03:36:50 PM 38.5608 -75.6500 52° Northeast 248 285 37,000  Level Washington Center
Sun 03:37:50 PM 38.6028 -75.5836 51° Northeast 248 285 37,000  Level Washington Center
Sun 03:38:51 PM 38.6444 -75.5119 53° Northeast 248 285 37,000  Level Washington Center
Sun 03:39:51 PM 38.6881 -75.4508 48° Northeast 248 285 37,000  Level Washington Center
Sun 03:40:51 PM 38.7297 -75.3814 52° Northeast 248 285 37,000 -347 Level Washington Center
Sun 03:41:52 PM 38.7753 -75.3119 50° Northeast 248 285 36,300 -706 Descending Washington Center
Sun 03:42:50 PM 38.8253 -75.2347 50° Northeast 259 298 35,600 -712 Descending Washington Center
Sun 03:43:50 PM 38.8728 -75.1597 51° Northeast 264 304 34,900 -595 Descending Washington Center
Sun 03:44:51 PM 38.9206 -75.0794 53° Northeast 269 310 34,400 -496 Descending Washington Center
Sun 03:45:51 PM 38.9703 -75.0017 51° Northeast 275 316 33,900 -595 Descending Washington Center
Sun 03:46:52 PM 39.0197 -74.9236 51° Northeast 282 325 33,200 -706 Descending Washington Center
Sun 03:47:50 PM 39.0672 -74.8458 52° Northeast 282 325 32,500 -756 Descending Washington Center
Sun 03:48:51 PM 39.1189 -74.7675 50° Northeast 282 325 31,700 -843 Descending Washington Center
Sun 03:49:51 PM 39.1725 -74.6839 50° Northeast 282 325 30,800 -1,226 Descending Washington Center
Sun 03:51:57 PM 39.2961 -74.4917 50° Northeast 301 346 27,900 -1,484 Descending New York Center
Sun 03:52:57 PM 39.3531 -74.4061 49° Northeast 306 352 26,200 -1,750 Descending New York Center
Sun 03:53:57 PM 39.4056 -74.3228 51° Northeast 322 371 24,400 -1,750 Descending New York Center
Sun 03:54:57 PM 39.4667 -74.2317 49° Northeast 330 380 22,700 -1,600 Descending New York Center
Sun 03:55:57 PM 39.5094 -74.1236 63° Northeast 330 380 21,200 -1,200 Descending New York Center
Sun 03:56:57 PM 39.5478 -74.0150 65° Northeast 330 380 20,300 -1,500 Descending New York Center
Sun 03:57:57 PM 39.5969 -73.8986 61° Northeast 330 380 18,200 -1,150 Descending New York Center
Sun 03:58:57 PM 39.6286 -73.8058 66° East 317 365 18,000 -100 Descending New York Center
Sun 03:59:57 PM 39.6542 -73.6964 73° East 312 359 18,000  Level New York Center
Sun 04:00:57 PM 39.6903 -73.5872 67° East 312 359 18,000 -250 Level New York Center
Sun 04:01:57 PM 39.7447 -73.4950 52° Northeast 317 365 17,500 -250 Descending New York Center
Sun 04:02:57 PM 39.8286 -73.4739 11° North 283 326 17,500  Level New York Center
Sun 04:03:57 PM 39.9161 -73.4719 North 283 326 17,500  Level New York Center
Sun 04:04:57 PM 40.0036 -73.4725 360° North 300 345 17,500  Level New York Center
Sun 04:05:57 PM 40.1014 -73.4736 360° North 313 360 17,500  Level New York Center
Sun 04:06:57 PM 40.1786 -73.4742 360° North 308 354 17,500  Level New York Center
Sun 04:07:57 PM 40.2767 -73.4750 360° North 308 354 17,500  Level New York Center
Sun 04:08:57 PM 40.3536 -73.4756 360° North 308 354 17,500  Level New York Center
Sun 04:09:57 PM 40.4517 -73.4739 North 308 354 17,500 -150 Level New York Center
Sun 04:10:57 PM 40.5308 -73.4769 358° North 308 354 17,200 -1,100 Descending New York Center
Sun 04:11:57 PM 40.6244 -73.4808 358° North 308 354 15,300 -1,700 Descending New York Center
Sun 04:12:57 PM 40.7078 -73.4786 North 303 349 13,800 -1,550 Descending New York Center
Sun 04:13:57 PM 40.7889 -73.4792 360° North 298 343 12,200 -1,400 Descending New York Center
Sun 04:14:57 PM 40.8536 -73.4817 358° North 293 337 11,000 -1,500 Descending New York Center
Sun 04:15:57 PM 40.9494 -73.4828 359° North 283 326 9,200 -1,600 Descending New York Center
Sun 04:16:57 PM 41.0264 -73.4803 North 278 320 7,800 -1,500 Descending New York Center
Sun 04:17:57 PM 41.1014 -73.4806 360° North 267 307 6,200 -1,435 Descending New York Center
Sun 04:19:15 PM 41.2000 -73.4500 13° North 262 302 4,500 -1,348 Descending New York TRACON
Sun 04:20:15 PM 41.2667 -73.4333 11° North 261 300 3,100 -1,150 Descending New York TRACON
Sun 04:21:15 PM 41.3333 -73.4167 11° North 204 235 2,200 -800 Descending New York TRACON
Sun 04:22:15 PM 41.3667 -73.4333 339° North 143 165 1,500 -450 Descending New York TRACON
Sun 04:23:15 PM 41.3833 -73.4667 304° West 134 154 1,300 -200 Descending New York TRACON
Sun 04:25:00 PM 41.3667 -73.4667 180° South  Level FlightAware Approximate
Sun 04:32:00 PM 41.3715 -73.4822 180° South  Level Estimated
Sun 04:33:00 PM 41.3715 -73.4822 180° South  Level Estimated
Sun 04:34:00 PM 41.3715 -73.4822 180° South  Level Estimated

Login

Don't have an account? Register now (free) for customized features, flight alerts, and more!